Thunder radar more information blitzortung!


Radar de pluja more information rain snow radar


Visita la nostra xarxa de llocs de meteo:

Template documentation
and downloads

And another site



No particular awareness of the weather is required.    There are no Weather-warnings

Pagina Historial Weather Underground text

Diari Resum Agost 3, 2017 Unitats:  Mètric    Imperial   Tant
« Previous Dia
SegĂźent Dia »
Diari Setmana Mensual Anual Personalitzada
  Maxima: Minima: Media:
Temperatura: 38.3 °C 23.4 °C 31.1 °C
Punt de rosada: 21.0 °C 11.9 °C 16.3 °C
Humitat: 64 % 29 % 42 %
Wind Speed: 30.1 km/h 0.0 km/h 6.3 km/h
RĂ fegues de vent: 30.1 km/h - -
Vent:- - SE
Pression baro: 1015.8 hPa 1010.7 hPa -
Precipitacions: 0.0 mm    
Historical Graphs
 
 
Dades de taula per Agost 3, 2017
Temps Temperatura Punt de rosada Pression baro Vent Wind Speed RĂ fegues de vent Humitat Rainfall Rate (Hourly)
00:01 27.6 °C 15.6 °C 1014.8 hPa SW 3.7 km/h 3.7 km/h 48 % 0.0 mm
00:05 24.9 °C 15.5 °C 1014.8 hPa Calm   3.2 km/h 56 % 0.0 mm
00:15 24.6 °C 15.2 °C 1014.8 hPa WSW 3.2 km/h 3.2 km/h 56 % 0.0 mm
00:25 24.4 °C 15.3 °C 1014.8 hPa Calm   4.8 km/h 57 % 0.0 mm
00:35 24.4 °C 15.3 °C 1014.8 hPa SW 1.6 km/h 4.8 km/h 57 % 0.0 mm
00:45 24.3 °C 15.5 °C 1014.8 hPa SW 1.6 km/h 3.2 km/h 58 % 0.0 mm
00:55 24.2 °C 15.4 °C 1014.8 hPa Calm   3.2 km/h 58 % 0.0 mm
01:05 24.2 °C 15.4 °C 1014.8 hPa West 3.2 km/h 4.8 km/h 58 % 0.0 mm
01:15 24.5 °C 15.7 °C 1014.8 hPa West 1.6 km/h 3.2 km/h 58 % 0.0 mm
01:25 24.4 °C 15.9 °C 1015.8 hPa West 1.6 km/h 3.2 km/h 59 % 0.0 mm
01:35 24.3 °C 15.8 °C 1015.8 hPa North 1.6 km/h 1.6 km/h 59 % 0.0 mm
01:45 24.3 °C 15.8 °C 1015.8 hPa Calm   1.6 km/h 59 % 0.0 mm
01:55 24.0 °C 15.5 °C 1014.8 hPa Calm     59 % 0.0 mm
02:05 24.0 °C 15.8 °C 1014.8 hPa Calm   1.6 km/h 60 % 0.0 mm
02:15 23.6 °C 15.6 °C 1014.8 hPa WNW 1.6 km/h 3.2 km/h 61 % 0.0 mm
02:25 23.4 °C 15.4 °C 1014.8 hPa WSW 1.6 km/h 3.2 km/h 61 % 0.0 mm
02:35 23.7 °C 15.7 °C 1014.8 hPa WSW 3.2 km/h 3.2 km/h 61 % 0.0 mm
02:45 23.7 °C 15.7 °C 1014.8 hPa WSW 3.2 km/h 4.8 km/h 61 % 0.0 mm
02:55 24.0 °C 16.0 °C 1013.8 hPa WSW 1.6 km/h 3.2 km/h 61 % 0.0 mm
03:05 24.4 °C 16.1 °C 1013.8 hPa WSW 3.2 km/h 4.8 km/h 60 % 0.0 mm
03:15 24.9 °C 16.6 °C 1013.8 hPa SW 1.6 km/h 3.2 km/h 60 % 0.0 mm
03:25 25.2 °C 16.3 °C 1013.8 hPa SW 3.2 km/h 4.8 km/h 58 % 0.0 mm
03:35 25.5 °C 16.6 °C 1013.8 hPa SW 1.6 km/h 3.2 km/h 58 % 0.0 mm
03:45 26.4 °C 17.4 °C 1013.8 hPa West 1.6 km/h 3.2 km/h 58 % 0.0 mm
03:55 27.2 °C 17.4 °C 1013.8 hPa NNE 4.8 km/h 6.4 km/h 55 % 0.0 mm
04:05 27.4 °C 17.6 °C 1013.8 hPa NNW 1.6 km/h 6.4 km/h 55 % 0.0 mm
04:15 28.1 °C 17.9 °C 1013.8 hPa NW 1.6 km/h 4.8 km/h 54 % 0.0 mm
04:25 28.6 °C 18.1 °C 1013.8 hPa NW 1.6 km/h 4.8 km/h 53 % 0.0 mm
04:35 28.9 °C 18.3 °C 1013.8 hPa WNW 3.2 km/h 3.2 km/h 53 % 0.0 mm
04:45 29.6 °C 18.1 °C 1013.8 hPa WNW 1.6 km/h 6.4 km/h 50 % 0.0 mm
04:55 30.2 °C 18.3 °C 1013.8 hPa West 1.6 km/h 3.2 km/h 49 % 0.0 mm
05:05 30.6 °C 18.7 °C 1013.8 hPa NNE 1.6 km/h 6.4 km/h 49 % 0.0 mm
05:15 31.1 °C 18.4 °C 1013.8 hPa NNE 1.6 km/h 4.8 km/h 47 % 0.0 mm
05:25 31.5 °C 18.8 °C 1013.8 hPa NNE 3.2 km/h 8.0 km/h 47 % 0.0 mm
05:35 32.5 °C 19.1 °C 1013.8 hPa NNE 1.6 km/h 3.2 km/h 45 % 0.0 mm
05:45 33.0 °C 18.8 °C 1013.8 hPa NNE 4.8 km/h 4.8 km/h 43 % 0.0 mm
10:54 33.5 °C 18.8 °C 1013.8 hPa WSW 5.6 km/h   42 % 0.0 mm
10:59 34.1 °C 19.4 °C 1013.8 hPa North 3.7 km/h 3.7 km/h 42 % 0.0 mm
11:04 33.9 °C 18.8 °C 1013.8 hPa North 5.6 km/h 5.6 km/h 41 % 0.0 mm
11:09 34.0 °C 18.9 °C 1013.8 hPa NE 3.9 km/h 3.9 km/h 41 % 0.0 mm
11:14 34.0 °C 18.9 °C 1013.8 hPa ENE 1.9 km/h 1.9 km/h 41 % 0.0 mm
11:19 34.6 °C 19.4 °C 1013.8 hPa North 3.7 km/h 3.7 km/h 41 % 0.0 mm
11:24 35.1 °C 19.1 °C 1013.8 hPa NNW 2.3 km/h   39 % 0.0 mm
11:29 35.2 °C 19.2 °C 1013.8 hPa NW 2.3 km/h 2.3 km/h 39 % 0.0 mm
11:34 35.2 °C 18.7 °C 1013.8 hPa ENE 3.7 km/h 3.7 km/h 38 % 0.0 mm
11:39 35.8 °C 18.8 °C 1013.8 hPa ESE 3.7 km/h 3.7 km/h 37 % 0.0 mm
11:44 35.9 °C 18.5 °C 1013.8 hPa ESE 3.7 km/h 3.7 km/h 36 % 0.0 mm
11:49 36.2 °C 19.2 °C 1013.8 hPa SW 3.7 km/h 3.7 km/h 37 % 0.0 mm
11:54 36.0 °C 18.1 °C 1013.8 hPa ESE 5.6 km/h 5.6 km/h 35 % 0.0 mm
11:59 36.2 °C 18.8 °C 1013.8 hPa South 7.4 km/h 7.4 km/h 36 % 0.0 mm
12:04 37.0 °C 18.6 °C 1013.8 hPa South 1.9 km/h 1.9 km/h 34 % 0.0 mm
12:09 36.9 °C 18.4 °C 1013.8 hPa SW 5.6 km/h 5.6 km/h 34 % 0.0 mm
12:14 36.4 °C 17.1 °C 1013.8 hPa ESE 9.3 km/h 9.3 km/h 32 % 0.0 mm
12:19 36.7 °C 17.3 °C 1012.8 hPa ENE 5.6 km/h 5.6 km/h 32 % 0.0 mm
12:24 36.8 °C 16.4 °C 1012.8 hPa ESE 9.3 km/h 9.3 km/h 30 % 0.0 mm
12:29 36.8 °C 16.4 °C 1012.8 hPa East 7.4 km/h 7.4 km/h 30 % 0.0 mm
12:34 37.4 °C 16.9 °C 1013.8 hPa WSW 5.6 km/h 5.6 km/h 30 % 0.0 mm
12:39 37.5 °C 16.4 °C 1013.8 hPa ENE 4.7 km/h 4.7 km/h 29 % 0.0 mm
12:44 37.5 °C 16.4 °C 1013.8 hPa East 7.4 km/h 7.4 km/h 29 % 0.0 mm
12:49 38.3 °C 17.1 °C 1013.8 hPa SSE 3.7 km/h 3.7 km/h 29 % 0.0 mm
12:54 37.8 °C 17.2 °C 1013.8 hPa East 14.8 km/h 14.8 km/h 30 % 0.0 mm
12:59 36.8 °C 18.8 °C 1013.8 hPa East 14.8 km/h 14.8 km/h 35 % 0.0 mm
13:04 35.8 °C 18.4 °C 1013.8 hPa ENE 16.7 km/h 16.7 km/h 36 % 0.0 mm
13:09 35.2 °C 18.7 °C 1013.8 hPa East 11.1 km/h 11.1 km/h 38 % 0.0 mm
13:14 35.0 °C 19.4 °C 1013.8 hPa ESE 13.0 km/h 13.0 km/h 40 % 0.0 mm
13:19 34.7 °C 19.9 °C 1012.8 hPa ESE 13.0 km/h 13.0 km/h 42 % 0.0 mm
13:24 34.9 °C 20.1 °C 1012.8 hPa ESE 18.5 km/h 18.5 km/h 42 % 0.0 mm
13:29 34.3 °C 19.9 °C 1012.8 hPa East 16.7 km/h 16.7 km/h 43 % 0.0 mm
13:34 34.1 °C 20.5 °C 1013.8 hPa ENE 30.1 km/h 30.1 km/h 45 % 0.0 mm
13:39 33.7 °C 20.5 °C 1013.8 hPa SE 24.5 km/h 24.5 km/h 46 % 0.0 mm
13:44 33.4 °C 20.2 °C 1013.8 hPa ESE 20.4 km/h 20.4 km/h 46 % 0.0 mm
13:49 33.5 °C 20.7 °C 1013.8 hPa ENE 13.0 km/h 13.0 km/h 47 % 0.0 mm
13:54 33.2 °C 20.7 °C 1013.8 hPa East 14.8 km/h 14.8 km/h 48 % 0.0 mm
13:59 32.9 °C 20.8 °C 1013.8 hPa East 13.0 km/h 13.0 km/h 49 % 0.0 mm
14:04 32.8 °C 21.0 °C 1013.8 hPa ESE 14.8 km/h 14.8 km/h 50 % 0.0 mm
14:09 33.0 °C 20.9 °C 1013.8 hPa NE 22.2 km/h 22.2 km/h 49 % 0.0 mm
14:14 32.1 °C 20.4 °C 1013.8 hPa ESE 18.5 km/h 18.5 km/h 50 % 0.0 mm
14:19 31.7 °C 20.3 °C 1013.8 hPa ESE 25.9 km/h 25.9 km/h 51 % 0.0 mm
14:24 31.9 °C 20.5 °C 1013.8 hPa NE 22.2 km/h 22.2 km/h 51 % 0.0 mm
14:25 31.7 °C 20.3 °C 1013.8 hPa NNE 24.1 km/h 24.1 km/h 51 % 0.0 mm
14:30 31.5 °C 20.4 °C 1013.8 hPa ENE 14.8 km/h 14.8 km/h 52 % 0.0 mm
14:35 31.2 °C 20.2 °C 1013.8 hPa ENE 16.7 km/h 16.7 km/h 52 % 0.0 mm
14:40 30.9 °C 20.5 °C 1013.8 hPa ESE 17.2 km/h 17.2 km/h 54 % 0.0 mm
14:45 31.3 °C 20.9 °C 1013.8 hPa SSE 13.0 km/h 13.0 km/h 54 % 0.0 mm
14:50 31.0 °C 20.6 °C 1012.8 hPa ENE 11.1 km/h 11.1 km/h 54 % 0.0 mm
14:55 31.0 °C 20.6 °C 1012.8 hPa North 14.8 km/h 14.8 km/h 54 % 0.0 mm
15:00 30.8 °C 20.7 °C 1012.8 hPa ENE 16.7 km/h 16.7 km/h 55 % 0.0 mm
15:05 30.6 °C 20.6 °C 1013.8 hPa NE 13.0 km/h 13.0 km/h 55 % 0.0 mm
15:10 30.6 °C 20.6 °C 1013.8 hPa ENE 13.0 km/h 13.0 km/h 55 % 0.0 mm
15:15 30.5 °C 20.2 °C 1013.8 hPa NE 13.0 km/h 13.0 km/h 54 % 0.0 mm
15:20 30.9 °C 20.5 °C 1013.8 hPa East 9.3 km/h 10.8 km/h 54 % 0.0 mm
15:25 30.6 °C 19.6 °C 1013.8 hPa ESE 14.8 km/h 14.8 km/h 52 % 0.0 mm
15:30 30.9 °C 18.9 °C 1013.8 hPa SE 20.4 km/h 20.4 km/h 49 % 0.0 mm
15:35 31.1 °C 18.4 °C 1013.8 hPa ENE 20.4 km/h 20.4 km/h 47 % 0.0 mm
15:36 31.1 °C 18.1 °C 1013.8 hPa East 20.4 km/h 20.4 km/h 46 % 0.0 mm
15:41 31.6 °C 18.2 °C 1013.8 hPa East 9.5 km/h 9.5 km/h 45 % 0.0 mm
15:46 32.0 °C 18.2 °C 1013.8 hPa ESE 9.3 km/h 9.3 km/h 44 % 0.0 mm
15:51 32.1 °C 18.3 °C 1013.8 hPa ENE 13.0 km/h 13.0 km/h 44 % 0.0 mm
15:56 32.2 °C 18.1 °C 1013.8 hPa ENE 18.0 km/h 18.0 km/h 43 % 0.0 mm
16:01 32.6 °C 18.4 °C 1013.8 hPa East 13.0 km/h 13.0 km/h 43 % 0.0 mm
16:06 32.5 °C 18.3 °C 1013.8 hPa South 16.7 km/h 16.7 km/h 43 % 0.0 mm
16:11 32.2 °C 18.1 °C 1013.8 hPa SE 14.8 km/h 14.8 km/h 43 % 0.0 mm
16:16 32.6 °C 18.0 °C 1013.8 hPa ESE 17.5 km/h 17.5 km/h 42 % 0.0 mm
16:21 32.7 °C 18.1 °C 1013.8 hPa ENE 13.0 km/h 13.0 km/h 42 % 0.0 mm
16:26 33.0 °C 17.6 °C 1013.8 hPa East 11.1 km/h 11.1 km/h 40 % 0.0 mm
16:31 33.1 °C 17.7 °C 1013.8 hPa ENE 13.0 km/h 13.0 km/h 40 % 0.0 mm
16:36 33.4 °C 17.2 °C 1013.8 hPa ESE 13.7 km/h 13.7 km/h 38 % 0.0 mm
16:41 33.2 °C 17.4 °C 1013.8 hPa East 11.1 km/h 11.1 km/h 39 % 0.0 mm
16:46 33.3 °C 17.1 °C 1013.8 hPa ESE 13.7 km/h 13.7 km/h 38 % 0.0 mm
16:51 33.6 °C 17.3 °C 1013.8 hPa ESE 15.8 km/h 15.8 km/h 38 % 0.0 mm
16:56 33.7 °C 17.4 °C 1013.8 hPa ESE 14.8 km/h 14.8 km/h 38 % 0.0 mm
17:01 33.7 °C 17.8 °C 1012.8 hPa East 13.0 km/h 13.0 km/h 39 % 0.0 mm
17:06 33.7 °C 17.0 °C 1012.8 hPa ESE 17.2 km/h 17.2 km/h 37 % 0.0 mm
17:11 34.0 °C 17.7 °C 1012.8 hPa ESE 9.3 km/h 9.3 km/h 38 % 0.0 mm
17:16 33.9 °C 17.6 °C 1011.7 hPa NNE 13.0 km/h 13.0 km/h 38 % 0.0 mm
17:21 33.8 °C 17.5 °C 1011.7 hPa East 13.0 km/h 13.0 km/h 38 % 0.0 mm
17:26 34.1 °C 17.8 °C 1011.7 hPa ESE 11.1 km/h 11.1 km/h 38 % 0.0 mm
17:31 34.2 °C 17.8 °C 1012.8 hPa ESE 9.3 km/h 9.3 km/h 38 % 0.0 mm
17:36 34.1 °C 17.8 °C 1012.8 hPa ENE 11.1 km/h 11.1 km/h 38 % 0.0 mm
17:41 34.2 °C 17.8 °C 1012.8 hPa ENE 13.0 km/h 13.0 km/h 38 % 0.0 mm
17:46 34.3 °C 17.5 °C 1012.8 hPa East 5.8 km/h 5.8 km/h 37 % 0.0 mm
17:51 34.3 °C 17.5 °C 1012.8 hPa NE 9.0 km/h 9.0 km/h 37 % 0.0 mm
17:56 34.2 °C 17.4 °C 1012.8 hPa ENE 14.0 km/h 14.0 km/h 37 % 0.0 mm
18:01 34.2 °C 17.0 °C 1012.8 hPa East 13.0 km/h 13.0 km/h 36 % 0.0 mm
18:06 34.2 °C 16.6 °C 1012.8 hPa ESE 15.6 km/h 15.6 km/h 35 % 0.0 mm
18:11 34.2 °C 17.0 °C 1012.8 hPa ENE 9.3 km/h 9.3 km/h 36 % 0.0 mm
18:16 34.4 °C 16.7 °C 1012.8 hPa ENE 9.3 km/h 9.3 km/h 35 % 0.0 mm
18:21 34.6 °C 17.3 °C 1012.8 hPa ESE 12.2 km/h 12.2 km/h 36 % 0.0 mm
18:26 34.6 °C 16.4 °C 1012.8 hPa NE 9.3 km/h 9.3 km/h 34 % 0.0 mm
18:31 34.7 °C 17.0 °C 1011.7 hPa NW 3.9 km/h 3.9 km/h 35 % 0.0 mm
18:36 34.9 °C 17.2 °C 1011.7 hPa East 4.2 km/h   35 % 0.0 mm
18:41 34.7 °C 17.0 °C 1011.7 hPa West 5.6 km/h 5.6 km/h 35 % 0.0 mm
18:46 35.4 °C 16.7 °C 1011.7 hPa South 7.4 km/h 7.4 km/h 33 % 0.0 mm
18:51 35.6 °C 15.9 °C 1011.7 hPa South 7.4 km/h 7.4 km/h 31 % 0.0 mm
18:56 35.9 °C 16.1 °C 1011.7 hPa West 3.7 km/h 3.7 km/h 31 % 0.0 mm
19:01 36.2 °C 15.9 °C 1011.7 hPa SW 1.9 km/h 1.9 km/h 30 % 0.0 mm
19:06 35.8 °C 15.5 °C 1011.7 hPa SE 5.6 km/h 5.6 km/h 30 % 0.0 mm
19:11 35.4 °C 15.2 °C 1011.7 hPa East 2.6 km/h   30 % 0.0 mm
19:21 34.6 °C 15.5 °C 1010.7 hPa ESE 7.4 km/h 7.4 km/h 32 % 0.0 mm
19:25 28.4 °C 12.3 °C 1012.8 hPa NNE 1.6 km/h 1.6 km/h 37 % 0.0 mm
19:26 34.4 °C 15.3 °C 1010.7 hPa ENE 11.1 km/h 11.1 km/h 32 % 0.0 mm
19:31 34.4 °C 14.8 °C 1011.7 hPa South 5.6 km/h 5.8 km/h 31 % 0.0 mm
19:35 28.0 °C 11.9 °C 1012.8 hPa NE 1.6 km/h 3.2 km/h 37 % 0.0 mm
19:36 34.5 °C 15.4 °C 1011.7 hPa ESE 3.9 km/h 3.9 km/h 32 % 0.0 mm
19:41 34.3 °C 15.2 °C 1011.7 hPa ESE 7.4 km/h 7.4 km/h 32 % 0.0 mm
19:45 27.7 °C 12.1 °C 1012.8 hPa Calm   3.2 km/h 38 % 0.0 mm
19:46 34.1 °C 14.6 °C 1011.7 hPa ESE 13.0 km/h 13.0 km/h 31 % 0.0 mm
19:51 34.0 °C 15.0 °C 1011.7 hPa ESE 12.2 km/h 12.2 km/h 32 % 0.0 mm
19:55 27.4 °C 12.2 °C 1012.8 hPa ENE 1.6 km/h 4.8 km/h 39 % 0.0 mm
19:56 33.9 °C 15.4 °C 1011.7 hPa ENE 5.6 km/h 5.6 km/h 33 % 0.0 mm
20:01 33.8 °C 15.3 °C 1011.7 hPa ESE 7.4 km/h 7.4 km/h 33 % 0.0 mm
20:05 27.0 °C 11.9 °C 1013.8 hPa Calm   3.2 km/h 39 % 0.0 mm
20:06 33.9 °C 15.4 °C 1011.7 hPa East 7.4 km/h 7.4 km/h 33 % 0.0 mm
20:11 33.7 °C 15.2 °C 1011.7 hPa East 5.6 km/h 5.6 km/h 33 % 0.0 mm
20:15 27.0 °C 12.2 °C 1013.8 hPa NE 1.6 km/h 3.2 km/h 40 % 0.0 mm
20:16 33.6 °C 15.1 °C 1011.7 hPa East 3.7 km/h 3.7 km/h 33 % 0.0 mm
20:21 33.6 °C 15.1 °C 1011.7 hPa ESE 3.7 km/h 3.7 km/h 33 % 0.0 mm
20:25 26.8 °C 12.4 °C 1012.8 hPa NNE 3.2 km/h 3.2 km/h 41 % 0.0 mm
20:26 33.7 °C 14.7 °C 1011.7 hPa Calm     32 % 0.0 mm
20:32 33.7 °C 14.7 °C 1011.7 hPa Calm     32 % 0.0 mm
20:35 26.7 °C 12.7 °C 1013.8 hPa NE 1.6 km/h 3.2 km/h 42 % 0.0 mm
20:37 33.5 °C 14.6 °C 1011.7 hPa WNW 1.9 km/h   32 % 0.0 mm
20:42 33.5 °C 14.1 °C 1011.7 hPa WSW 3.7 km/h 3.7 km/h 31 % 0.0 mm
20:45 26.5 °C 12.6 °C 1013.8 hPa ENE 1.6 km/h 4.8 km/h 42 % 0.0 mm
20:47 33.5 °C 13.6 °C 1011.7 hPa Calm     30 % 0.0 mm
20:52 33.4 °C 13.4 °C 1011.7 hPa Calm     30 % 0.0 mm
20:55 26.2 °C 12.6 °C 1013.8 hPa Calm   3.2 km/h 43 % 0.0 mm
20:57 33.2 °C 13.3 °C 1011.7 hPa SW 2.3 km/h 2.3 km/h 30 % 0.0 mm
21:02 33.1 °C 12.7 °C 1011.7 hPa Calm     29 % 0.0 mm
21:05 26.0 °C 12.8 °C 1013.8 hPa ENE 3.2 km/h 3.2 km/h 44 % 0.0 mm
21:07 33.0 °C 12.6 °C 1011.7 hPa Calm     29 % 0.0 mm
21:12 32.8 °C 13.4 °C 1011.7 hPa WNW 3.2 km/h   31 % 0.0 mm
21:15 25.8 °C 12.6 °C 1013.8 hPa Calm     44 % 0.0 mm
21:17 32.7 °C 12.8 °C 1011.7 hPa Calm     30 % 0.0 mm
21:22 32.6 °C 12.8 °C 1011.7 hPa Calm     30 % 0.0 mm
21:25 25.6 °C 13.8 °C 1013.8 hPa NE 1.6 km/h 3.2 km/h 48 % 0.0 mm
21:27 32.4 °C 12.6 °C 1011.7 hPa Calm     30 % 0.0 mm
21:32 32.2 °C 12.4 °C 1011.7 hPa North 1.9 km/h 1.9 km/h 30 % 0.0 mm
21:35 25.4 °C 14.5 °C 1012.8 hPa NE 1.6 km/h 3.2 km/h 51 % 0.0 mm
21:37 32.1 °C 12.8 °C 1011.7 hPa NNW 1.9 km/h 1.9 km/h 31 % 0.0 mm
21:42 32.0 °C 12.3 °C 1011.7 hPa Calm     30 % 0.0 mm
21:45 25.2 °C 14.9 °C 1012.8 hPa NE 1.6 km/h 3.2 km/h 53 % 0.0 mm
21:47 31.9 °C 12.2 °C 1012.8 hPa Calm     30 % 0.0 mm
21:52 31.8 °C 12.1 °C 1012.8 hPa Calm     30 % 0.0 mm
21:55 25.0 °C 15.1 °C 1012.8 hPa ENE 3.2 km/h 3.2 km/h 54 % 0.0 mm
21:57 31.8 °C 12.6 °C 1012.8 hPa NNW 1.9 km/h   31 % 0.0 mm
22:02 31.7 °C 12.5 °C 1012.8 hPa Calm     31 % 0.0 mm
22:05 24.8 °C 15.4 °C 1012.8 hPa NNE 1.6 km/h 4.8 km/h 56 % 0.0 mm
22:07 31.5 °C 12.3 °C 1012.8 hPa Calm     31 % 0.0 mm
22:12 31.4 °C 12.7 °C 1012.8 hPa Calm     32 % 0.0 mm
22:15 24.7 °C 16.2 °C 1012.8 hPa NNE 1.6 km/h 3.2 km/h 59 % 0.0 mm
22:17 31.2 °C 12.6 °C 1012.8 hPa NNW 1.9 km/h 2.3 km/h 32 % 0.0 mm
22:22 31.1 °C 12.4 °C 1012.8 hPa NNW 1.9 km/h   32 % 0.0 mm
22:25 24.5 °C 15.7 °C 1012.8 hPa NE 3.2 km/h 3.2 km/h 58 % 0.0 mm
22:27 31.0 °C 12.4 °C 1012.8 hPa Calm     32 % 0.0 mm
22:32 30.9 °C 12.8 °C 1012.8 hPa Calm     33 % 0.0 mm
22:35 24.5 °C 15.9 °C 1012.8 hPa NNE 3.2 km/h 3.2 km/h 59 % 0.0 mm
22:37 30.7 °C 12.6 °C 1012.8 hPa NNE 1.4 km/h   33 % 0.0 mm
22:42 30.6 °C 12.5 °C 1012.8 hPa NNE 2.3 km/h 2.3 km/h 33 % 0.0 mm
22:45 24.3 °C 16.1 °C 1012.8 hPa Calm   3.2 km/h 60 % 0.0 mm
22:47 30.4 °C 12.3 °C 1012.8 hPa NNE 1.9 km/h   33 % 0.0 mm
22:52 30.3 °C 12.7 °C 1012.8 hPa NNE 1.9 km/h   34 % 0.0 mm
22:55 24.2 °C 16.2 °C 1012.8 hPa NE 1.6 km/h 3.2 km/h 61 % 0.0 mm
22:57 30.2 °C 12.6 °C 1012.8 hPa NNE 1.9 km/h   34 % 0.0 mm
23:02 30.1 °C 12.5 °C 1012.8 hPa Calm     34 % 0.0 mm
23:05 24.1 °C 16.1 °C 1012.8 hPa NE 3.2 km/h 3.2 km/h 61 % 0.0 mm
23:07 30.0 °C 12.4 °C 1012.8 hPa Calm     34 % 0.0 mm
23:12 30.0 °C 12.4 °C 1012.8 hPa Calm     34 % 0.0 mm
23:15 24.0 °C 16.3 °C 1012.8 hPa Calm   3.2 km/h 62 % 0.0 mm
23:17 29.8 °C 12.7 °C 1012.8 hPa Calm     35 % 0.0 mm
23:22 29.7 °C 12.6 °C 1012.8 hPa Calm     35 % 0.0 mm
23:25 23.9 °C 16.4 °C 1013.8 hPa Calm     63 % 0.0 mm
23:27 29.6 °C 12.5 °C 1012.8 hPa Calm     35 % 0.0 mm
23:32 29.6 °C 12.5 °C 1012.8 hPa Calm     35 % 0.0 mm
23:35 23.7 °C 16.5 °C 1013.8 hPa Calm   1.6 km/h 64 % 0.0 mm
23:37 29.5 °C 12.4 °C 1012.8 hPa Calm     35 % 0.0 mm
23:42 29.5 °C 12.4 °C 1012.8 hPa Calm     35 % 0.0 mm
23:45 23.5 °C 16.3 °C 1013.8 hPa Calm     64 % 0.0 mm
23:47 29.5 °C 12.4 °C 1012.8 hPa Calm     35 % 0.0 mm
23:52 29.4 °C 12.3 °C 1012.8 hPa Calm     35 % 0.0 mm
23:55 23.4 °C 16.2 °C 1013.8 hPa Calm     64 % 0.0 mm
23:57 29.3 °C 12.3 °C 1012.8 hPa Calm     35 % 0.0 mm
Meteo Sesrovires
Elogis d' Weather Underground - 3.75 mb

Guio original per  Jim McMurry - jmcmurry@mwt.net Adaptat per a la plantilla per  Wim van der Kuil - Leuven-Template.eu

Trobareu la nostra informacio del temps tambe a:

Weather Underground

AWEKAS